createdAt,value
2018-12-09T00:00:30.218Z,9.59
2018-12-09T00:01:30.189Z,9.65
2018-12-09T00:02:30.158Z,9.68
2018-12-09T00:03:30.134Z,9.73
2018-12-09T00:04:30.095Z,9.78
2018-12-09T00:05:30.067Z,9.73
2018-12-09T00:06:30.047Z,9.74
2018-12-09T00:07:30.007Z,9.77
2018-12-09T00:08:29.980Z,9.73
2018-12-09T00:09:29.948Z,9.91
2018-12-09T00:10:29.917Z,9.85
2018-12-09T00:11:29.885Z,9.80
2018-12-09T00:12:29.855Z,9.73
2018-12-09T00:13:29.826Z,9.77
2018-12-09T00:14:29.795Z,9.75
2018-12-09T00:15:29.769Z,9.70
2018-12-09T00:16:29.735Z,9.89
2018-12-09T00:17:29.704Z,9.81
2018-12-09T00:18:29.678Z,9.81
2018-12-09T00:19:29.644Z,9.73
2018-12-09T00:20:29.621Z,9.68
2018-12-09T00:21:29.585Z,9.71
2018-12-09T00:22:29.555Z,9.63
2018-12-09T00:23:29.525Z,9.81
2018-12-09T00:24:29.494Z,9.75
2018-12-09T00:25:29.463Z,9.73
2018-12-09T00:26:29.434Z,9.70
2018-12-09T00:27:29.403Z,9.75
2018-12-09T00:28:29.373Z,9.71
2018-12-09T00:29:29.344Z,9.67
2018-12-09T00:30:29.317Z,9.68
2018-12-09T00:31:29.284Z,9.63
2018-12-09T00:32:29.255Z,9.70
2018-12-09T00:33:29.229Z,9.50
2018-12-09T00:34:29.192Z,9.52
2018-12-09T00:35:29.163Z,9.56
2018-12-09T00:36:29.138Z,9.49
2018-12-09T00:37:29.103Z,9.59
2018-12-09T00:38:29.073Z,9.50
2018-12-09T00:39:29.062Z,9.59
2018-12-09T00:40:29.011Z,9.50
2018-12-09T00:41:28.982Z,9.48
2018-12-09T00:42:28.959Z,9.50
2018-12-09T00:43:28.923Z,9.52
2018-12-09T00:44:28.898Z,9.45
2018-12-09T00:45:28.863Z,9.49
2018-12-09T00:46:28.831Z,9.49
2018-12-09T00:47:28.800Z,9.52
2018-12-09T00:48:28.769Z,9.62
2018-12-09T00:49:28.740Z,9.41
2018-12-09T00:50:28.716Z,9.56
2018-12-09T00:51:28.681Z,9.62
2018-12-09T00:52:28.650Z,9.52
2018-12-09T00:53:28.619Z,9.50
2018-12-09T00:54:28.590Z,9.44
2018-12-09T00:55:28.559Z,9.50
2018-12-09T00:56:28.529Z,9.44
2018-12-09T00:57:28.499Z,9.48
2018-12-09T00:58:28.468Z,9.38
2018-12-09T00:59:28.444Z,9.34
2018-12-09T01:00:28.509Z,9.32
2018-12-09T01:01:28.380Z,9.35
2018-12-09T01:02:28.349Z,9.40
2018-12-09T01:03:28.319Z,9.45
2018-12-09T01:04:28.288Z,9.50
2018-12-09T01:05:28.261Z,9.45
2018-12-09T01:06:28.237Z,9.45
2018-12-09T01:07:28.203Z,9.53
2018-12-09T01:08:28.175Z,9.37
2018-12-09T01:09:28.135Z,9.38
2018-12-09T01:10:28.109Z,9.40
2018-12-09T01:11:28.091Z,9.40
2018-12-09T01:12:28.046Z,9.34
2018-12-09T01:13:28.022Z,9.30
2018-12-09T01:14:27.991Z,9.32
2018-12-09T01:15:27.955Z,9.31
2018-12-09T01:16:27.925Z,9.26
2018-12-09T01:17:27.894Z,9.23
2018-12-09T01:18:27.865Z,9.16
2018-12-09T01:19:27.836Z,9.22
2018-12-09T01:20:27.813Z,9.22
2018-12-09T01:21:27.775Z,9.15
2018-12-09T01:22:27.742Z,9.16
2018-12-09T01:23:27.749Z,9.00
2018-12-09T01:24:27.685Z,9.00
2018-12-09T01:25:27.651Z,9.00
2018-12-09T01:26:27.622Z,9.03
2018-12-09T01:27:27.593Z,9.03
2018-12-09T01:28:27.560Z,9.03
2018-12-09T01:29:27.533Z,8.98
2018-12-09T01:30:28.250Z,9.01
2018-12-09T01:31:27.472Z,8.91
2018-12-09T01:32:27.439Z,8.89
2018-12-09T01:33:27.409Z,8.88
2018-12-09T01:34:27.382Z,8.73
2018-12-09T01:35:27.347Z,8.73
2018-12-09T01:36:27.323Z,8.70
2018-12-09T01:37:27.288Z,8.64
2018-12-09T01:38:27.257Z,8.70
2018-12-09T01:39:27.244Z,8.54
2018-12-09T01:40:27.195Z,8.49
2018-12-09T01:41:27.165Z,8.50
2018-12-09T01:42:27.144Z,8.39
2018-12-09T01:43:27.104Z,8.45
2018-12-09T01:44:27.076Z,8.39
2018-12-09T01:45:27.065Z,8.43
2018-12-09T01:46:27.014Z,8.31
2018-12-09T01:47:26.982Z,8.32
2018-12-09T01:48:26.950Z,8.29
2018-12-09T01:49:26.921Z,8.34
2018-12-09T01:50:26.890Z,8.36
2018-12-09T01:51:26.860Z,8.29
2018-12-09T01:52:26.841Z,8.22
2018-12-09T01:53:26.797Z,8.20
2018-12-09T01:54:26.768Z,8.22
2018-12-09T01:55:26.737Z,8.18
2018-12-09T01:56:26.709Z,8.22
2018-12-09T01:57:26.675Z,8.24
2018-12-09T01:58:26.646Z,8.18
2018-12-09T01:59:26.620Z,8.06
2018-12-09T02:00:26.586Z,8.09
2018-12-09T02:01:26.552Z,8.06
2018-12-09T02:02:26.522Z,8.04
2018-12-09T02:03:26.493Z,8.04
2018-12-09T02:04:26.458Z,7.96
2018-12-09T02:05:26.428Z,7.96
2018-12-09T02:06:26.402Z,7.91
2018-12-09T02:07:26.367Z,7.89
2018-12-09T02:08:26.335Z,7.95
2018-12-09T02:09:26.305Z,7.89
2018-12-09T02:10:26.275Z,7.82
2018-12-09T02:11:26.245Z,7.95
2018-12-09T02:12:26.214Z,7.82
2018-12-09T02:13:26.181Z,7.81
2018-12-09T02:14:26.150Z,7.86
2018-12-09T02:15:26.121Z,7.85
2018-12-09T02:16:26.097Z,7.81
2018-12-09T02:17:26.057Z,7.79
2018-12-09T02:18:26.027Z,7.76
2018-12-09T02:19:25.996Z,7.79
2018-12-09T02:20:25.966Z,7.82
2018-12-09T02:21:25.934Z,7.77
2018-12-09T02:22:25.913Z,7.73
2018-12-09T02:23:25.873Z,7.76
2018-12-09T02:24:25.841Z,7.73
2018-12-09T02:25:25.816Z,7.69
2018-12-09T02:26:25.779Z,7.66
2018-12-09T02:27:25.748Z,7.70
2018-12-09T02:28:25.716Z,7.66
2018-12-09T02:29:25.686Z,7.69
2018-12-09T02:30:25.654Z,7.67
2018-12-09T02:31:25.625Z,7.63
2018-12-09T02:32:25.594Z,7.67
2018-12-09T02:33:25.562Z,7.69
2018-12-09T02:34:25.532Z,7.66
2018-12-09T02:35:25.507Z,7.66
2018-12-09T02:36:25.467Z,7.70
2018-12-09T02:37:25.437Z,7.66
2018-12-09T02:38:25.406Z,7.60
2018-12-09T02:39:25.375Z,7.66
2018-12-09T02:40:25.343Z,7.62
2018-12-09T02:41:25.352Z,7.62
2018-12-09T02:42:25.281Z,7.62
2018-12-09T02:43:25.251Z,7.57
2018-12-09T02:44:25.221Z,7.51
2018-12-09T02:45:25.189Z,7.54
2018-12-09T02:46:25.162Z,7.48
2018-12-09T02:47:25.128Z,7.44
2018-12-09T02:48:25.093Z,7.45
2018-12-09T02:49:25.063Z,7.50
2018-12-09T02:50:25.032Z,7.47
2018-12-09T02:51:25.002Z,7.44
2018-12-09T02:52:25.173Z,7.47
2018-12-09T02:53:24.939Z,7.36
2018-12-09T02:54:24.916Z,7.39
2018-12-09T02:55:24.876Z,7.39
2018-12-09T02:56:24.843Z,7.34
2018-12-09T02:57:24.814Z,7.36
2018-12-09T02:58:24.782Z,7.37
2018-12-09T02:59:24.953Z,7.26
2018-12-09T03:00:24.718Z,7.26
2018-12-09T03:01:24.689Z,7.26
2018-12-09T03:02:24.658Z,7.16
2018-12-09T03:03:24.629Z,7.29
2018-12-09T03:04:24.592Z,7.19
2018-12-09T03:05:24.563Z,7.29
2018-12-09T03:06:24.530Z,7.24
2018-12-09T03:07:24.502Z,7.24
2018-12-09T03:08:24.476Z,7.23
2018-12-09T03:09:24.437Z,7.19
2018-12-09T03:10:24.409Z,7.16
2018-12-09T03:11:24.376Z,7.18
2018-12-09T03:12:24.343Z,7.15
2018-12-09T03:13:24.313Z,7.15
2018-12-09T03:14:24.279Z,7.16
2018-12-09T03:15:24.252Z,7.18
2018-12-09T03:16:24.216Z,7.14
2018-12-09T03:17:24.188Z,7.07
2018-12-09T03:18:24.154Z,7.07
2018-12-09T03:19:24.122Z,7.08
2018-12-09T03:20:24.097Z,7.09
2018-12-09T03:21:24.059Z,7.05
2018-12-09T03:22:24.029Z,7.04
2018-12-09T03:23:24.000Z,7.05
2018-12-09T03:24:23.964Z,6.99
2018-12-09T03:25:23.936Z,7.00
2018-12-09T03:26:23.902Z,6.99
2018-12-09T03:27:23.870Z,6.99
2018-12-09T03:28:23.843Z,6.91
2018-12-09T03:29:23.808Z,6.93
2018-12-09T03:30:23.804Z,6.97
2018-12-09T03:31:23.746Z,6.91
2018-12-09T03:32:23.714Z,6.83
2018-12-09T03:33:23.680Z,6.86
2018-12-09T03:34:23.721Z,6.89
2018-12-09T03:35:23.618Z,6.86
2018-12-09T03:36:23.584Z,6.86
2018-12-09T03:37:23.556Z,6.87
2018-12-09T03:38:23.523Z,6.75
2018-12-09T03:39:23.494Z,6.78
2018-12-09T03:40:23.461Z,6.86
2018-12-09T03:41:23.430Z,6.79
2018-12-09T03:42:23.397Z,6.72
2018-12-09T03:43:23.368Z,6.75
2018-12-09T03:44:23.334Z,6.75
2018-12-09T03:45:23.303Z,6.87
2018-12-09T03:46:23.291Z,6.76
2018-12-09T03:47:23.243Z,6.81
2018-12-09T03:48:23.206Z,6.76
2018-12-09T03:49:23.175Z,6.78
2018-12-09T03:50:23.295Z,6.83
2018-12-09T03:51:23.112Z,6.78
2018-12-09T03:52:23.081Z,6.87
2018-12-09T03:53:23.053Z,6.86
2018-12-09T03:54:23.018Z,6.82
2018-12-09T03:55:22.986Z,6.94
2018-12-09T03:56:22.957Z,6.94
2018-12-09T03:57:22.921Z,6.91
2018-12-09T03:58:22.892Z,7.04
2018-12-09T03:59:22.956Z,7.04
2018-12-09T04:00:22.829Z,7.07
2018-12-09T04:01:22.797Z,7.09
2018-12-09T04:02:22.765Z,7.07
2018-12-09T04:03:22.734Z,7.05
2018-12-09T04:04:22.701Z,7.15
2018-12-09T04:05:22.670Z,7.14
2018-12-09T04:06:22.639Z,7.04
2018-12-09T04:07:22.630Z,7.18
2018-12-09T04:08:22.575Z,7.14
2018-12-09T04:09:22.545Z,7.16
2018-12-09T04:10:22.512Z,7.15
2018-12-09T04:11:22.483Z,7.21
2018-12-09T04:12:22.451Z,7.21
2018-12-09T04:13:22.418Z,7.21
2018-12-09T04:14:22.387Z,7.21
2018-12-09T04:15:22.363Z,7.23
2018-12-09T04:16:22.321Z,7.16
2018-12-09T04:17:22.291Z,7.15
2018-12-09T04:18:22.259Z,7.23
2018-12-09T04:19:22.229Z,7.23
2018-12-09T04:20:22.198Z,7.19
2018-12-09T04:21:22.168Z,7.27
2018-12-09T04:22:22.139Z,7.24
2018-12-09T04:23:22.105Z,7.29
2018-12-09T04:24:22.080Z,7.32
2018-12-09T04:25:22.040Z,7.27
2018-12-09T04:26:22.012Z,7.36
2018-12-09T04:27:21.979Z,7.24
2018-12-09T04:28:21.945Z,7.30
2018-12-09T04:29:21.914Z,7.33
2018-12-09T04:30:21.884Z,7.29
2018-12-09T04:31:21.851Z,7.29
2018-12-09T04:32:21.820Z,7.23
2018-12-09T04:33:21.788Z,7.26
2018-12-09T04:34:21.756Z,7.23
2018-12-09T04:35:21.726Z,7.29
2018-12-09T04:36:21.830Z,7.27
2018-12-09T04:37:21.663Z,7.27
2018-12-09T04:38:21.635Z,7.36
2018-12-09T04:39:21.603Z,7.44
2018-12-09T04:40:21.568Z,7.34
2018-12-09T04:41:21.543Z,7.36
2018-12-09T04:42:21.508Z,7.39
2018-12-09T04:43:21.475Z,7.48
2018-12-09T04:44:21.446Z,7.47
2018-12-09T04:45:21.413Z,7.47
2018-12-09T04:46:21.381Z,7.47
2018-12-09T04:47:21.351Z,7.45
2018-12-09T04:48:21.317Z,7.47
2018-12-09T04:49:21.293Z,7.44
2018-12-09T04:50:21.256Z,7.45
2018-12-09T04:51:21.223Z,7.50
2018-12-09T04:52:21.195Z,7.42
2018-12-09T04:53:21.165Z,7.44
2018-12-09T04:54:21.280Z,7.34
2018-12-09T04:55:21.101Z,7.48
2018-12-09T04:56:21.067Z,7.48
2018-12-09T04:57:21.035Z,7.44
2018-12-09T04:58:21.006Z,7.50
2018-12-09T04:59:20.975Z,7.44
2018-12-09T05:00:20.944Z,7.54
2018-12-09T05:01:20.912Z,7.55
2018-12-09T05:02:20.879Z,7.63
2018-12-09T05:03:20.849Z,7.58
2018-12-09T05:04:20.820Z,7.66
2018-12-09T05:05:20.785Z,7.60
2018-12-09T05:06:20.756Z,7.55
2018-12-09T05:07:20.724Z,7.55
2018-12-09T05:08:20.693Z,7.58
2018-12-09T05:09:20.661Z,7.67
2018-12-09T05:10:20.633Z,7.58
2018-12-09T05:11:20.601Z,7.58
2018-12-09T05:12:21.369Z,7.57
2018-12-09T05:13:20.540Z,7.58
2018-12-09T05:14:20.507Z,7.62
2018-12-09T05:15:20.472Z,7.66
2018-12-09T05:16:20.455Z,7.62
2018-12-09T05:17:20.411Z,7.62
2018-12-09T05:18:20.382Z,7.66
2018-12-09T05:19:20.348Z,7.58
2018-12-09T05:20:20.315Z,7.63
2018-12-09T05:21:20.285Z,7.63
2018-12-09T05:22:20.255Z,7.66
2018-12-09T05:23:20.224Z,7.71
2018-12-09T05:24:20.191Z,7.77
2018-12-09T05:25:20.161Z,7.74
2018-12-09T05:26:20.130Z,7.76
2018-12-09T05:27:20.104Z,7.77
2018-12-09T05:28:20.069Z,7.71
2018-12-09T05:29:20.036Z,7.70
2018-12-09T05:30:20.010Z,7.71
2018-12-09T05:31:19.975Z,7.62
2018-12-09T05:32:19.943Z,7.70
2018-12-09T05:33:19.926Z,7.77
2018-12-09T05:34:19.881Z,7.76
2018-12-09T05:35:19.851Z,7.84
2018-12-09T05:36:19.819Z,7.76
2018-12-09T05:37:19.789Z,7.79
2018-12-09T05:38:19.759Z,7.86
2018-12-09T05:39:19.727Z,7.82
2018-12-09T05:40:19.694Z,7.85
2018-12-09T05:41:19.670Z,7.76
2018-12-09T05:42:19.635Z,7.85
2018-12-09T05:43:19.605Z,7.81
2018-12-09T05:44:19.572Z,7.86
2018-12-09T05:45:19.539Z,7.76
2018-12-09T05:46:19.510Z,7.79
2018-12-09T05:47:19.480Z,7.79
2018-12-09T05:48:19.450Z,7.77
2018-12-09T05:49:19.500Z,7.77
2018-12-09T05:50:19.386Z,7.76
2018-12-09T05:51:19.354Z,7.82
2018-12-09T05:52:19.333Z,7.91
2018-12-09T05:53:19.291Z,7.94
2018-12-09T05:54:19.261Z,7.91
2018-12-09T05:55:19.231Z,7.86
2018-12-09T05:56:19.200Z,7.86
2018-12-09T05:57:19.179Z,7.89
2018-12-09T05:58:19.139Z,7.92
2018-12-09T05:59:19.110Z,7.81
2018-12-09T06:00:19.124Z,7.89
2018-12-09T06:01:19.046Z,7.86
2018-12-09T06:02:19.015Z,7.82
2018-12-09T06:03:18.984Z,7.82
2018-12-09T06:04:18.957Z,7.86
2018-12-09T06:05:18.924Z,7.84
2018-12-09T06:06:18.891Z,7.91
2018-12-09T06:07:18.859Z,7.89
2018-12-09T06:08:18.827Z,7.92
2018-12-09T06:09:18.799Z,7.92
2018-12-09T06:10:18.768Z,7.85
2018-12-09T06:11:18.735Z,7.81
2018-12-09T06:12:18.705Z,7.92
2018-12-09T06:13:18.678Z,7.85
2018-12-09T06:14:18.646Z,7.82
2018-12-09T06:15:18.617Z,7.94
2018-12-09T06:16:18.581Z,7.88
2018-12-09T06:17:18.550Z,7.92
2018-12-09T06:18:18.520Z,7.92
2018-12-09T06:19:18.489Z,7.99
2018-12-09T06:20:18.457Z,8.02
2018-12-09T06:21:18.426Z,7.95
2018-12-09T06:22:18.396Z,8.02
2018-12-09T06:23:18.364Z,7.99
2018-12-09T06:24:18.338Z,8.03
2018-12-09T06:25:18.305Z,8.03
2018-12-09T06:26:18.271Z,7.94
2018-12-09T06:27:18.248Z,8.06
2018-12-09T06:28:18.210Z,7.96
2018-12-09T06:29:18.178Z,8.00
2018-12-09T06:30:18.149Z,8.02
2018-12-09T06:31:18.123Z,8.06
2018-12-09T06:32:18.085Z,8.07
2018-12-09T06:33:18.063Z,8.12
2018-12-09T06:34:18.025Z,8.10
2018-12-09T06:35:18.145Z,8.04
2018-12-09T06:36:17.964Z,8.06
2018-12-09T06:37:17.931Z,8.14
2018-12-09T06:38:17.902Z,8.10
2018-12-09T06:39:17.870Z,8.12
2018-12-09T06:40:17.839Z,8.14
2018-12-09T06:41:17.810Z,8.12
2018-12-09T06:42:17.777Z,8.18
2018-12-09T06:43:17.749Z,8.20
2018-12-09T06:44:17.717Z,8.12
2018-12-09T06:45:17.690Z,8.14
2018-12-09T06:46:17.656Z,8.18
2018-12-09T06:47:17.628Z,8.12
2018-12-09T06:48:17.593Z,8.14
2018-12-09T06:49:17.563Z,8.20
2018-12-09T06:50:17.538Z,8.14
2018-12-09T06:51:17.502Z,8.17
2018-12-09T06:52:17.476Z,8.22
2018-12-09T06:53:17.940Z,8.14
2018-12-09T06:54:17.410Z,8.17
2018-12-09T06:55:17.380Z,8.24
2018-12-09T06:56:17.348Z,8.17
2018-12-09T06:57:17.318Z,8.22
2018-12-09T06:58:17.287Z,8.21
2018-12-09T06:59:17.257Z,8.22
2018-12-09T07:00:17.230Z,8.18
2018-12-09T07:01:17.198Z,8.18
2018-12-09T07:02:17.163Z,8.09
2018-12-09T07:03:17.142Z,8.10
2018-12-09T07:04:17.102Z,8.12
2018-12-09T07:05:17.071Z,8.12
2018-12-09T07:06:17.042Z,8.12
2018-12-09T07:07:17.010Z,8.14
2018-12-09T07:08:16.979Z,8.14
2018-12-09T07:09:16.948Z,8.22
2018-12-09T07:10:16.921Z,8.14
2018-12-09T07:11:16.891Z,8.20
2018-12-09T07:12:16.858Z,8.22
2018-12-09T07:13:16.828Z,8.18
2018-12-09T07:14:16.799Z,8.20
2018-12-09T07:15:16.765Z,8.18
2018-12-09T07:16:16.735Z,8.17
2018-12-09T07:17:16.704Z,8.17
2018-12-09T07:18:16.673Z,8.20
2018-12-09T07:19:16.644Z,8.21
2018-12-09T07:20:16.615Z,8.24
2018-12-09T07:21:16.581Z,8.21
2018-12-09T07:22:16.554Z,8.20
2018-12-09T07:23:16.524Z,8.25
2018-12-09T07:24:16.490Z,8.34
2018-12-09T07:25:16.460Z,8.21
2018-12-09T07:26:16.428Z,8.29
2018-12-09T07:27:16.399Z,8.24
2018-12-09T07:28:16.368Z,8.31
2018-12-09T07:29:16.336Z,8.27
2018-12-09T07:30:16.308Z,8.27
2018-12-09T07:31:16.280Z,8.27
2018-12-09T07:32:16.250Z,8.20
2018-12-09T07:33:16.215Z,8.27
2018-12-09T07:34:16.185Z,8.28
2018-12-09T07:35:16.154Z,8.28
2018-12-09T07:36:16.123Z,8.31
2018-12-09T07:37:16.093Z,8.24
2018-12-09T07:38:16.063Z,8.21
2018-12-09T07:39:16.032Z,8.28
2018-12-09T07:40:16.006Z,8.29
2018-12-09T07:41:15.971Z,8.29
2018-12-09T07:42:15.939Z,8.29
2018-12-09T07:43:15.911Z,8.29
2018-12-09T07:44:15.878Z,8.34
2018-12-09T07:45:15.846Z,8.31
2018-12-09T07:46:15.818Z,8.32
2018-12-09T07:47:15.787Z,8.29
2018-12-09T07:48:15.755Z,8.27
2018-12-09T07:49:15.727Z,8.29
2018-12-09T07:50:15.697Z,8.29
2018-12-09T07:51:15.665Z,8.36
2018-12-09T07:52:15.636Z,8.25
2018-12-09T07:53:15.604Z,8.29
2018-12-09T07:54:15.573Z,8.28
2018-12-09T07:55:15.542Z,8.34
2018-12-09T07:56:15.511Z,8.37
2018-12-09T07:57:15.481Z,8.32
2018-12-09T07:58:15.452Z,8.27
2018-12-09T07:59:15.421Z,8.34
2018-12-09T08:00:15.422Z,8.36
2018-12-09T08:01:15.358Z,8.42
2018-12-09T08:02:15.331Z,8.40
2018-12-09T08:03:15.306Z,8.32
2018-12-09T08:04:15.270Z,8.43
2018-12-09T08:05:15.237Z,8.34
2018-12-09T08:06:15.213Z,8.42
2018-12-09T08:07:15.178Z,8.32
2018-12-09T08:08:15.148Z,8.39
2018-12-09T08:09:15.118Z,8.37
2018-12-09T08:10:15.084Z,8.31
2018-12-09T08:11:15.060Z,8.39
2018-12-09T08:12:15.025Z,8.24
2018-12-09T08:13:14.994Z,8.37
2018-12-09T08:14:14.963Z,8.40
2018-12-09T08:15:14.932Z,8.32
2018-12-09T08:16:14.935Z,8.46
2018-12-09T08:17:14.872Z,8.39
2018-12-09T08:18:14.840Z,8.39
2018-12-09T08:19:14.817Z,8.37
2018-12-09T08:20:14.781Z,8.37
2018-12-09T08:21:14.750Z,8.37
2018-12-09T08:22:14.720Z,8.40
2018-12-09T08:23:14.690Z,8.37
2018-12-09T08:24:14.659Z,8.37
2018-12-09T08:25:14.638Z,8.34
2018-12-09T08:26:14.598Z,8.39
2018-12-09T08:27:14.567Z,8.37
2018-12-09T08:28:14.540Z,8.43
2018-12-09T08:29:14.506Z,8.55
2018-12-09T08:30:14.476Z,8.45
2018-12-09T08:31:14.445Z,8.57
2018-12-09T08:32:14.414Z,8.47
2018-12-09T08:33:14.385Z,8.47
2018-12-09T08:34:14.354Z,8.50
2018-12-09T08:35:15.327Z,8.57
2018-12-09T08:36:14.293Z,8.52
2018-12-09T08:37:14.263Z,8.55
2018-12-09T08:38:14.234Z,8.60
2018-12-09T08:39:14.208Z,8.58
2018-12-09T08:40:14.175Z,8.57
2018-12-09T08:41:14.143Z,8.57
2018-12-09T08:42:14.120Z,8.57
2018-12-09T08:43:14.083Z,8.67
2018-12-09T08:44:14.053Z,8.75
2018-12-09T08:45:14.024Z,8.67
2018-12-09T08:46:13.992Z,8.79
2018-12-09T08:47:13.961Z,8.97
2018-12-09T08:48:13.930Z,8.93
2018-12-09T08:49:13.903Z,8.79
2018-12-09T08:50:13.872Z,8.78
2018-12-09T08:51:13.842Z,8.76
2018-12-09T08:52:13.811Z,8.79
2018-12-09T08:53:13.930Z,8.85
2018-12-09T08:54:13.752Z,8.83
2018-12-09T08:55:13.721Z,8.79
2018-12-09T08:56:13.691Z,8.82
2018-12-09T08:57:13.670Z,8.88
2018-12-09T08:58:13.633Z,8.85
2018-12-09T08:59:13.607Z,8.89
2018-12-09T09:00:13.573Z,8.97
2018-12-09T09:01:13.542Z,8.97
2018-12-09T09:02:13.514Z,9.01
2018-12-09T09:03:13.483Z,8.94
2018-12-09T09:04:13.454Z,8.88
2018-12-09T09:05:13.425Z,8.78
2018-12-09T09:06:13.398Z,8.76
2018-12-09T09:07:13.365Z,8.75
2018-12-09T09:08:13.335Z,8.79
2018-12-09T09:09:13.310Z,8.82
2018-12-09T09:10:13.276Z,8.80
2018-12-09T09:11:13.250Z,8.65
2018-12-09T09:12:13.218Z,8.61
2018-12-09T09:13:13.191Z,8.54
2018-12-09T09:14:13.158Z,8.34
2018-12-09T09:15:13.128Z,8.37
2018-12-09T09:16:13.097Z,8.42
2018-12-09T09:17:13.069Z,8.36
2018-12-09T09:18:13.042Z,8.36
2018-12-09T09:19:13.012Z,8.42
2018-12-09T09:20:12.979Z,8.34
2018-12-09T09:21:12.948Z,8.29
2018-12-09T09:22:12.920Z,8.29
2018-12-09T09:23:12.889Z,8.39
2018-12-09T09:24:12.857Z,8.42
2018-12-09T09:25:12.831Z,8.47
2018-12-09T09:26:12.796Z,8.37
2018-12-09T09:27:12.771Z,8.37
2018-12-09T09:28:12.738Z,8.40
2018-12-09T09:29:12.708Z,8.37
2018-12-09T09:30:12.679Z,8.40
2018-12-09T09:31:12.647Z,8.39
2018-12-09T09:32:12.616Z,8.52
2018-12-09T09:33:12.586Z,8.50
2018-12-09T09:34:12.560Z,8.40
2018-12-09T09:35:12.525Z,8.55
2018-12-09T09:36:12.495Z,8.42
2018-12-09T09:37:12.465Z,8.50
2018-12-09T09:38:12.525Z,8.50
2018-12-09T09:39:12.404Z,8.50
2018-12-09T09:40:12.376Z,8.60
2018-12-09T09:41:12.344Z,8.76
2018-12-09T09:42:12.315Z,8.71
2018-12-09T09:43:12.284Z,8.71
2018-12-09T09:44:12.260Z,8.73
2018-12-09T09:45:12.222Z,8.65
2018-12-09T09:46:12.198Z,8.79
2018-12-09T09:47:12.162Z,8.80
2018-12-09T09:48:12.133Z,8.80
2018-12-09T09:49:12.105Z,9.08
2018-12-09T09:50:12.294Z,9.16
2018-12-09T09:51:12.049Z,8.94
2018-12-09T09:52:12.011Z,8.97
2018-12-09T09:53:11.983Z,8.83
2018-12-09T09:54:11.954Z,8.79
2018-12-09T09:55:11.923Z,8.78
2018-12-09T09:56:11.893Z,8.80
2018-12-09T09:57:11.865Z,8.79
2018-12-09T09:58:11.834Z,8.76
2018-12-09T09:59:11.813Z,8.86
2018-12-09T10:00:11.775Z,8.78
2018-12-09T10:01:11.751Z,8.76
2018-12-09T10:02:11.716Z,8.80
2018-12-09T10:03:11.687Z,8.76
2018-12-09T10:04:11.655Z,8.80
2018-12-09T10:05:11.627Z,8.88
2018-12-09T10:06:11.598Z,8.86
2018-12-09T10:07:11.572Z,8.88
2018-12-09T10:08:11.537Z,8.89
2018-12-09T10:09:11.511Z,8.80
2018-12-09T10:10:11.526Z,8.97
2018-12-09T10:11:11.450Z,9.03
2018-12-09T10:12:11.420Z,9.00
2018-12-09T10:13:11.389Z,9.04
2018-12-09T10:14:11.361Z,9.06
2018-12-09T10:15:11.334Z,9.03
2018-12-09T10:16:11.305Z,9.01
2018-12-09T10:17:11.275Z,9.01
2018-12-09T10:18:11.249Z,9.03
2018-12-09T10:19:11.213Z,9.06
2018-12-09T10:20:11.185Z,9.03
2018-12-09T10:21:11.154Z,9.03
2018-12-09T10:22:11.124Z,9.03
2018-12-09T10:23:11.094Z,9.03
2018-12-09T10:24:11.065Z,9.06
2018-12-09T10:25:11.037Z,8.98
2018-12-09T10:26:11.006Z,9.10
2018-12-09T10:27:10.981Z,9.06
2018-12-09T10:28:10.946Z,9.03
2018-12-09T10:29:10.920Z,9.03
2018-12-09T10:30:10.887Z,9.00
2018-12-09T10:31:10.856Z,9.03
2018-12-09T10:32:10.830Z,9.00
2018-12-09T10:33:10.954Z,9.03
2018-12-09T10:34:10.767Z,8.97
2018-12-09T10:35:10.747Z,8.94
2018-12-09T10:36:10.707Z,8.97
2018-12-09T10:37:10.679Z,9.03
2018-12-09T10:38:10.649Z,9.04
2018-12-09T10:39:10.626Z,9.01
2018-12-09T10:40:10.588Z,9.06
2018-12-09T10:41:10.560Z,9.03
2018-12-09T10:42:10.529Z,9.08
2018-12-09T10:43:10.501Z,9.03
2018-12-09T10:44:10.473Z,9.03
2018-12-09T10:45:10.439Z,9.03
2018-12-09T10:46:10.411Z,9.01
2018-12-09T10:47:10.381Z,9.08
2018-12-09T10:48:10.351Z,9.01
2018-12-09T10:49:10.329Z,9.03
2018-12-09T10:50:10.304Z,8.98
2018-12-09T10:51:10.263Z,9.00
2018-12-09T10:52:10.245Z,8.98
2018-12-09T10:53:10.201Z,8.98
2018-12-09T10:54:10.173Z,9.00
2018-12-09T10:55:10.142Z,9.01
2018-12-09T10:56:10.112Z,8.97
2018-12-09T10:57:10.084Z,9.12
2018-12-09T10:58:10.053Z,9.13
2018-12-09T10:59:10.024Z,9.10
2018-12-09T11:00:09.993Z,9.08
2018-12-09T11:01:09.964Z,9.12
2018-12-09T11:02:09.934Z,9.15
2018-12-09T11:03:09.904Z,9.01
2018-12-09T11:04:09.875Z,8.97
2018-12-09T11:05:09.845Z,8.91
2018-12-09T11:06:09.816Z,8.94
2018-12-09T11:07:09.790Z,8.89
2018-12-09T11:08:09.758Z,8.96
2018-12-09T11:09:09.727Z,8.94
2018-12-09T11:10:09.698Z,9.00
2018-12-09T11:11:09.667Z,9.01
2018-12-09T11:12:09.636Z,8.83
2018-12-09T11:13:09.608Z,8.78
2018-12-09T11:14:09.579Z,8.86
2018-12-09T11:15:09.548Z,8.78
2018-12-09T11:16:09.518Z,8.80
2018-12-09T11:17:09.489Z,8.79
2018-12-09T11:18:09.458Z,8.70
2018-12-09T11:19:09.430Z,8.68
2018-12-09T11:20:09.399Z,8.75
2018-12-09T11:21:09.369Z,8.70
2018-12-09T11:22:09.340Z,8.67
2018-12-09T11:23:09.311Z,8.64
2018-12-09T11:24:09.280Z,8.61
2018-12-09T11:25:09.252Z,8.63
2018-12-09T11:26:09.220Z,8.63
2018-12-09T11:27:09.197Z,8.73
2018-12-09T11:28:09.161Z,8.63
2018-12-09T11:29:09.134Z,8.68
2018-12-09T11:30:09.102Z,8.58
2018-12-09T11:31:09.074Z,8.42
2018-12-09T11:32:09.042Z,8.27
2018-12-09T11:33:09.013Z,8.28
2018-12-09T11:34:08.982Z,8.22
2018-12-09T11:35:08.957Z,8.24
2018-12-09T11:36:08.923Z,8.13
2018-12-09T11:37:08.892Z,8.17
2018-12-09T11:38:08.864Z,8.17
2018-12-09T11:39:09.421Z,8.17
2018-12-09T11:40:08.802Z,8.17
2018-12-09T11:41:08.774Z,8.17
2018-12-09T11:42:08.741Z,8.14
2018-12-09T11:43:08.713Z,8.17
2018-12-09T11:44:08.681Z,8.17
2018-12-09T11:45:08.651Z,8.14
2018-12-09T11:46:08.621Z,8.10
2018-12-09T11:47:08.592Z,8.14
2018-12-09T11:48:08.558Z,8.09
2018-12-09T11:49:08.530Z,8.24
2018-12-09T11:50:08.502Z,8.34
2018-12-09T11:51:08.470Z,8.27
2018-12-09T11:52:08.439Z,8.24
2018-12-09T11:53:08.412Z,8.22
2018-12-09T11:54:08.379Z,8.21
2018-12-09T11:55:08.347Z,8.18
2018-12-09T11:56:08.316Z,8.12
2018-12-09T11:57:08.288Z,8.12
2018-12-09T11:58:08.257Z,8.10
2018-12-09T11:59:08.227Z,8.17
2018-12-09T12:00:08.196Z,8.20
2018-12-09T12:01:08.164Z,8.17
2018-12-09T12:02:08.135Z,8.32
2018-12-09T12:03:08.104Z,8.32
2018-12-09T12:04:08.078Z,8.32
2018-12-09T12:05:08.043Z,8.37
2018-12-09T12:06:08.031Z,8.45
2018-12-09T12:07:07.983Z,8.43
2018-12-09T12:08:07.955Z,8.42
2018-12-09T12:09:07.922Z,8.40
2018-12-09T12:10:07.895Z,8.36
2018-12-09T12:11:07.865Z,8.31
2018-12-09T12:12:07.847Z,8.27
2018-12-09T12:13:07.802Z,8.28
2018-12-09T12:14:07.772Z,8.25
2018-12-09T12:15:07.762Z,8.22
2018-12-09T12:16:07.713Z,8.25
2018-12-09T12:17:07.680Z,8.09
2018-12-09T12:18:07.651Z,8.07
2018-12-09T12:19:07.620Z,8.10
2018-12-09T12:20:07.589Z,8.09
2018-12-09T12:21:07.559Z,8.07
2018-12-09T12:22:07.529Z,8.17
2018-12-09T12:23:07.499Z,8.20
2018-12-09T12:24:07.470Z,8.20
2018-12-09T12:25:07.439Z,8.22
2018-12-09T12:26:07.409Z,8.24
2018-12-09T12:27:07.376Z,8.14
2018-12-09T12:28:07.350Z,8.17
2018-12-09T12:29:07.316Z,8.18
2018-12-09T12:30:07.284Z,8.12
2018-12-09T12:31:07.259Z,8.12
2018-12-09T12:32:07.222Z,8.13
2018-12-09T12:33:07.195Z,8.09
2018-12-09T12:34:07.169Z,8.09
2018-12-09T12:35:07.133Z,8.09
2018-12-09T12:36:07.105Z,8.14
2018-12-09T12:37:07.071Z,8.17
2018-12-09T12:38:07.042Z,8.37
2018-12-09T12:39:07.010Z,8.32
2018-12-09T12:40:06.978Z,8.32
2018-12-09T12:41:06.946Z,8.31
2018-12-09T12:42:06.917Z,8.28
2018-12-09T12:43:06.887Z,8.28
2018-12-09T12:44:06.855Z,8.42
2018-12-09T12:45:06.829Z,8.43
2018-12-09T12:46:06.794Z,8.52
2018-12-09T12:47:06.767Z,8.50
2018-12-09T12:48:06.732Z,8.54
2018-12-09T12:49:06.702Z,8.52
2018-12-09T12:50:06.679Z,8.57
2018-12-09T12:51:06.644Z,8.50
2018-12-09T12:52:06.608Z,8.50
2018-12-09T12:53:06.579Z,8.49
2018-12-09T12:54:06.548Z,8.46
2018-12-09T12:55:06.520Z,8.55
2018-12-09T12:56:06.486Z,8.49
2018-12-09T12:57:06.455Z,8.49
2018-12-09T12:58:06.437Z,8.65
2018-12-09T12:59:06.394Z,8.60
2018-12-09T13:00:06.362Z,8.60
2018-12-09T13:01:06.343Z,8.64
2018-12-09T13:02:06.303Z,8.78
2018-12-09T13:03:06.273Z,8.71
2018-12-09T13:04:06.241Z,8.60
2018-12-09T13:05:06.210Z,8.68
2018-12-09T13:06:06.182Z,8.65
2018-12-09T13:07:06.151Z,8.63
2018-12-09T13:08:06.127Z,8.65
2018-12-09T13:09:06.089Z,8.63
2018-12-09T13:10:06.058Z,8.70
2018-12-09T13:11:06.030Z,8.68
2018-12-09T13:12:05.999Z,8.68
2018-12-09T13:13:05.968Z,8.67
2018-12-09T13:14:05.938Z,8.60
2018-12-09T13:15:05.911Z,8.70
2018-12-09T13:16:05.877Z,8.78
2018-12-09T13:17:05.849Z,8.82
2018-12-09T13:18:05.816Z,8.68